sensor_id;sensor_type;location;lat;lon;timestamp;P1;durP1;ratioP1;P2;durP2;ratioP2
43919;SDS011;29578;51.946;5.874;2022-08-11T00:02:23;0.47;;;0.47;;
43919;SDS011;29578;51.946;5.874;2022-08-11T00:04:52;0.50;;;0.50;;
43919;SDS011;29578;51.946;5.874;2022-08-11T00:07:20;0.38;;;0.38;;
43919;SDS011;29578;51.946;5.874;2022-08-11T00:09:46;0.30;;;0.30;;
43919;SDS011;29578;51.946;5.874;2022-08-11T00:12:14;0.40;;;0.40;;
43919;SDS011;29578;51.946;5.874;2022-08-11T00:14:42;0.40;;;0.40;;
43919;SDS011;29578;51.946;5.874;2022-08-11T00:17:11;0.20;;;0.20;;
43919;SDS011;29578;51.946;5.874;2022-08-11T00:19:40;0.38;;;0.38;;
43919;SDS011;29578;51.946;5.874;2022-08-11T00:22:10;0.30;;;0.30;;
43919;SDS011;29578;51.946;5.874;2022-08-11T00:24:43;0.40;;;0.40;;
43919;SDS011;29578;51.946;5.874;2022-08-11T00:27:09;0.55;;;0.40;;
43919;SDS011;29578;51.946;5.874;2022-08-11T00:29:35;1.20;;;0.52;;
43919;SDS011;29578;51.946;5.874;2022-08-11T00:32:02;0.55;;;0.28;;
43919;SDS011;29578;51.946;5.874;2022-08-11T00:34:31;0.40;;;0.40;;
43919;SDS011;29578;51.946;5.874;2022-08-11T00:37:02;0.32;;;0.32;;
43919;SDS011;29578;51.946;5.874;2022-08-11T00:39:34;0.40;;;0.40;;
43919;SDS011;29578;51.946;5.874;2022-08-11T00:42:31;0.35;;;0.35;;
43919;SDS011;29578;51.946;5.874;2022-08-11T00:45:13;0.40;;;0.40;;
43919;SDS011;29578;51.946;5.874;2022-08-11T00:48:02;0.50;;;0.50;;
43919;SDS011;29578;51.946;5.874;2022-08-11T00:50:44;0.50;;;0.50;;
43919;SDS011;29578;51.946;5.874;2022-08-11T00:53:33;0.50;;;0.50;;
43919;SDS011;29578;51.946;5.874;2022-08-11T01:02:18;0.45;;;0.40;;
43919;SDS011;29578;51.946;5.874;2022-08-11T01:05:09;0.40;;;0.40;;
43919;SDS011;29578;51.946;5.874;2022-08-11T01:19:54;0.38;;;0.38;;
43919;SDS011;29578;51.946;5.874;2022-08-11T01:22:57;0.30;;;0.30;;
43919;SDS011;29578;51.946;5.874;2022-08-11T01:28:23;0.40;;;0.40;;
43919;SDS011;29578;51.946;5.874;2022-08-11T01:31:21;0.50;;;0.50;;
43919;SDS011;29578;51.946;5.874;2022-08-11T01:37:15;0.30;;;0.30;;
43919;SDS011;29578;51.946;5.874;2022-08-11T01:43:06;0.43;;;0.40;;
43919;SDS011;29578;51.946;5.874;2022-08-11T01:46:12;0.40;;;0.40;;
43919;SDS011;29578;51.946;5.874;2022-08-11T01:54:41;0.35;;;0.35;;
43919;SDS011;29578;51.946;5.874;2022-08-11T02:00:05;0.47;;;0.47;;
43919;SDS011;29578;51.946;5.874;2022-08-11T02:02:39;0.40;;;0.40;;
43919;SDS011;29578;51.946;5.874;2022-08-11T02:05:22;0.32;;;0.30;;
43919;SDS011;29578;51.946;5.874;2022-08-11T02:08:44;0.50;;;0.50;;
43919;SDS011;29578;51.946;5.874;2022-08-11T02:13:57;0.32;;;0.32;;
43919;SDS011;29578;51.946;5.874;2022-08-11T02:16:36;0.35;;;0.35;;
43919;SDS011;29578;51.946;5.874;2022-08-11T02:19:22;0.32;;;0.32;;
43919;SDS011;29578;51.946;5.874;2022-08-11T02:22:29;0.40;;;0.40;;
43919;SDS011;29578;51.946;5.874;2022-08-11T02:25:23;0.40;;;0.40;;
43919;SDS011;29578;51.946;5.874;2022-08-11T02:28:18;0.30;;;0.30;;
43919;SDS011;29578;51.946;5.874;2022-08-11T02:31:11;0.35;;;0.35;;
43919;SDS011;29578;51.946;5.874;2022-08-11T02:33:59;0.30;;;0.30;;
43919;SDS011;29578;51.946;5.874;2022-08-11T02:39:10;0.40;;;0.40;;
43919;SDS011;29578;51.946;5.874;2022-08-11T02:41:51;0.50;;;0.50;;
43919;SDS011;29578;51.946;5.874;2022-08-11T02:53:58;0.70;;;0.52;;
43919;SDS011;29578;51.946;5.874;2022-08-11T02:56:51;0.30;;;0.30;;
43919;SDS011;29578;51.946;5.874;2022-08-11T03:02:37;0.40;;;0.40;;
43919;SDS011;29578;51.946;5.874;2022-08-11T03:05:17;0.30;;;0.30;;
43919;SDS011;29578;51.946;5.874;2022-08-11T03:10:36;0.25;;;0.25;;
43919;SDS011;29578;51.946;5.874;2022-08-11T03:13:31;0.30;;;0.30;;
43919;SDS011;29578;51.946;5.874;2022-08-11T03:16:20;0.55;;;0.45;;
43919;SDS011;29578;51.946;5.874;2022-08-11T03:22:25;0.30;;;0.30;;
43919;SDS011;29578;51.946;5.874;2022-08-11T03:25:05;0.30;;;0.30;;
43919;SDS011;29578;51.946;5.874;2022-08-11T03:27:40;0.28;;;0.28;;
43919;SDS011;29578;51.946;5.874;2022-08-11T03:30:15;0.47;;;0.40;;
43919;SDS011;29578;51.946;5.874;2022-08-11T03:32:50;0.57;;;0.35;;
43919;SDS011;29578;51.946;5.874;2022-08-11T03:36:58;0.28;;;0.28;;
43919;SDS011;29578;51.946;5.874;2022-08-11T03:38:47;0.52;;;0.38;;
43919;SDS011;29578;51.946;5.874;2022-08-11T03:47:27;0.32;;;0.30;;
43919;SDS011;29578;51.946;5.874;2022-08-11T03:53:17;0.30;;;0.30;;
43919;SDS011;29578;51.946;5.874;2022-08-11T03:59:13;0.30;;;0.30;;
43919;SDS011;29578;51.946;5.874;2022-08-11T04:17:37;1.40;;;0.65;;
43919;SDS011;29578;51.946;5.874;2022-08-11T04:26:31;0.40;;;0.40;;
43919;SDS011;29578;51.946;5.874;2022-08-11T04:29:17;0.57;;;0.57;;
43919;SDS011;29578;51.946;5.874;2022-08-11T04:32:03;0.55;;;0.38;;
43919;SDS011;29578;51.946;5.874;2022-08-11T04:34:58;0.63;;;0.38;;
43919;SDS011;29578;51.946;5.874;2022-08-11T04:37:49;0.40;;;0.40;;
43919;SDS011;29578;51.946;5.874;2022-08-11T04:40:39;0.43;;;0.30;;
43919;SDS011;29578;51.946;5.874;2022-08-11T04:46:32;0.37;;;0.37;;
43919;SDS011;29578;51.946;5.874;2022-08-11T04:52:59;0.45;;;0.35;;
43919;SDS011;29578;51.946;5.874;2022-08-11T05:02:11;0.80;;;0.30;;
43919;SDS011;29578;51.946;5.874;2022-08-11T05:05:00;0.30;;;0.30;;
43919;SDS011;29578;51.946;5.874;2022-08-11T05:08:12;0.45;;;0.40;;
43919;SDS011;29578;51.946;5.874;2022-08-11T05:11:02;0.40;;;0.40;;
43919;SDS011;29578;51.946;5.874;2022-08-11T05:13:47;0.60;;;0.50;;
43919;SDS011;29578;51.946;5.874;2022-08-11T05:16:47;0.77;;;0.40;;
43919;SDS011;29578;51.946;5.874;2022-08-11T05:19:36;0.50;;;0.40;;
43919;SDS011;29578;51.946;5.874;2022-08-11T05:22:16;0.32;;;0.32;;
43919;SDS011;29578;51.946;5.874;2022-08-11T05:25:14;0.65;;;0.40;;
43919;SDS011;29578;51.946;5.874;2022-08-11T05:28:05;0.40;;;0.40;;
43919;SDS011;29578;51.946;5.874;2022-08-11T05:30:47;0.40;;;0.40;;
43919;SDS011;29578;51.946;5.874;2022-08-11T05:36:53;0.70;;;0.70;;
43919;SDS011;29578;51.946;5.874;2022-08-11T05:39:30;0.30;;;0.30;;
43919;SDS011;29578;51.946;5.874;2022-08-11T05:42:20;0.63;;;0.55;;
43919;SDS011;29578;51.946;5.874;2022-08-11T05:44:59;0.60;;;0.60;;
43919;SDS011;29578;51.946;5.874;2022-08-11T05:47:48;1.20;;;0.50;;
43919;SDS011;29578;51.946;5.874;2022-08-11T05:50:28;0.47;;;0.47;;
43919;SDS011;29578;51.946;5.874;2022-08-11T05:53:09;0.40;;;0.40;;
43919;SDS011;29578;51.946;5.874;2022-08-11T05:55:48;0.35;;;0.35;;
43919;SDS011;29578;51.946;5.874;2022-08-11T05:58:37;0.50;;;0.40;;
43919;SDS011;29578;51.946;5.874;2022-08-11T06:01:04;0.40;;;0.40;;
43919;SDS011;29578;51.946;5.874;2022-08-11T06:03:32;0.50;;;0.50;;
43919;SDS011;29578;51.946;5.874;2022-08-11T06:06:20;0.93;;;0.60;;
43919;SDS011;29578;51.946;5.874;2022-08-11T06:08:46;0.50;;;0.50;;
43919;SDS011;29578;51.946;5.874;2022-08-11T06:11:13;0.50;;;0.40;;
43919;SDS011;29578;51.946;5.874;2022-08-11T06:13:43;0.65;;;0.50;;
43919;SDS011;29578;51.946;5.874;2022-08-11T06:16:10;1.27;;;0.43;;
43919;SDS011;29578;51.946;5.874;2022-08-11T06:18:43;0.50;;;0.50;;
43919;SDS011;29578;51.946;5.874;2022-08-11T06:21:11;0.60;;;0.60;;
43919;SDS011;29578;51.946;5.874;2022-08-11T06:23:37;0.50;;;0.50;;
43919;SDS011;29578;51.946;5.874;2022-08-11T06:26:09;0.65;;;0.60;;
43919;SDS011;29578;51.946;5.874;2022-08-11T06:28:38;1.00;;;0.40;;
43919;SDS011;29578;51.946;5.874;2022-08-11T06:31:12;0.40;;;0.40;;
43919;SDS011;29578;51.946;5.874;2022-08-11T06:33:49;0.50;;;0.50;;
43919;SDS011;29578;51.946;5.874;2022-08-11T06:39:17;0.82;;;0.43;;
43919;SDS011;29578;51.946;5.874;2022-08-11T06:41:53;0.43;;;0.43;;
43919;SDS011;29578;51.946;5.874;2022-08-11T06:44:31;0.38;;;0.38;;
43919;SDS011;29578;51.946;5.874;2022-08-11T06:47:11;0.45;;;0.45;;
43919;SDS011;29578;51.946;5.874;2022-08-11T06:49:43;0.40;;;0.40;;
43919;SDS011;29578;51.946;5.874;2022-08-11T06:52:28;0.50;;;0.50;;
43919;SDS011;29578;51.946;5.874;2022-08-11T06:54:55;0.40;;;0.40;;
43919;SDS011;29578;51.946;5.874;2022-08-11T06:57:32;0.40;;;0.40;;
43919;SDS011;29578;51.946;5.874;2022-08-11T07:00:17;0.68;;;0.52;;
43919;SDS011;29578;51.946;5.874;2022-08-11T07:03:12;0.38;;;0.38;;
43919;SDS011;29578;51.946;5.874;2022-08-11T07:11:45;0.50;;;0.50;;
43919;SDS011;29578;51.946;5.874;2022-08-11T07:14:51;0.30;;;0.30;;
43919;SDS011;29578;51.946;5.874;2022-08-11T07:17:43;0.47;;;0.47;;
43919;SDS011;29578;51.946;5.874;2022-08-11T07:20:13;0.40;;;0.40;;
43919;SDS011;29578;51.946;5.874;2022-08-11T07:22:58;0.40;;;0.40;;
43919;SDS011;29578;51.946;5.874;2022-08-11T07:25:38;0.40;;;0.40;;
43919;SDS011;29578;51.946;5.874;2022-08-11T07:28:22;0.30;;;0.30;;
43919;SDS011;29578;51.946;5.874;2022-08-11T07:31:09;0.43;;;0.43;;
43919;SDS011;29578;51.946;5.874;2022-08-11T07:33:40;0.40;;;0.40;;
43919;SDS011;29578;51.946;5.874;2022-08-11T07:36:10;0.40;;;0.40;;
43919;SDS011;29578;51.946;5.874;2022-08-11T07:38:38;0.50;;;0.50;;
43919;SDS011;29578;51.946;5.874;2022-08-11T07:41:09;0.50;;;0.50;;
43919;SDS011;29578;51.946;5.874;2022-08-11T07:43:36;0.47;;;0.47;;
43919;SDS011;29578;51.946;5.874;2022-08-11T07:46:03;0.30;;;0.30;;
43919;SDS011;29578;51.946;5.874;2022-08-11T07:48:49;1.23;;;0.52;;
43919;SDS011;29578;51.946;5.874;2022-08-11T07:51:29;0.40;;;0.40;;
43919;SDS011;29578;51.946;5.874;2022-08-11T07:54:09;0.47;;;0.40;;
43919;SDS011;29578;51.946;5.874;2022-08-11T07:56:36;0.70;;;0.60;;
43919;SDS011;29578;51.946;5.874;2022-08-11T07:59:03;0.50;;;0.50;;
43919;SDS011;29578;51.946;5.874;2022-08-11T08:01:40;0.77;;;0.70;;
43919;SDS011;29578;51.946;5.874;2022-08-11T08:04:20;0.80;;;0.50;;
43919;SDS011;29578;51.946;5.874;2022-08-11T08:07:01;0.57;;;0.57;;
43919;SDS011;29578;51.946;5.874;2022-08-11T08:09:41;0.40;;;0.40;;
43919;SDS011;29578;51.946;5.874;2022-08-11T08:12:21;0.40;;;0.40;;
43919;SDS011;29578;51.946;5.874;2022-08-11T08:15:04;0.30;;;0.30;;
43919;SDS011;29578;51.946;5.874;2022-08-11T08:17:51;0.50;;;0.50;;
43919;SDS011;29578;51.946;5.874;2022-08-11T08:20:27;0.50;;;0.50;;
43919;SDS011;29578;51.946;5.874;2022-08-11T08:22:57;0.40;;;0.40;;
43919;SDS011;29578;51.946;5.874;2022-08-11T08:25:25;0.40;;;0.40;;
43919;SDS011;29578;51.946;5.874;2022-08-11T08:27:54;0.47;;;0.47;;
43919;SDS011;29578;51.946;5.874;2022-08-11T08:30:23;0.52;;;0.52;;
43919;SDS011;29578;51.946;5.874;2022-08-11T08:33:03;0.50;;;0.50;;
43919;SDS011;29578;51.946;5.874;2022-08-11T08:35:29;0.60;;;0.60;;
43919;SDS011;29578;51.946;5.874;2022-08-11T08:37:56;0.60;;;0.60;;
43919;SDS011;29578;51.946;5.874;2022-08-11T08:40:24;0.52;;;0.52;;
43919;SDS011;29578;51.946;5.874;2022-08-11T08:42:52;0.40;;;0.40;;
43919;SDS011;29578;51.946;5.874;2022-08-11T08:45:21;0.47;;;0.47;;
43919;SDS011;29578;51.946;5.874;2022-08-11T08:47:52;1.33;;;0.60;;
43919;SDS011;29578;51.946;5.874;2022-08-11T08:50:23;1.10;;;0.50;;
43919;SDS011;29578;51.946;5.874;2022-08-11T08:53:12;0.50;;;0.50;;
43919;SDS011;29578;51.946;5.874;2022-08-11T08:55:40;1.85;;;0.50;;
43919;SDS011;29578;51.946;5.874;2022-08-11T08:58:07;0.70;;;0.57;;
43919;SDS011;29578;51.946;5.874;2022-08-11T09:00:42;0.65;;;0.65;;
43919;SDS011;29578;51.946;5.874;2022-08-11T09:03:09;0.63;;;0.50;;
43919;SDS011;29578;51.946;5.874;2022-08-11T09:05:36;0.93;;;0.60;;
43919;SDS011;29578;51.946;5.874;2022-08-11T09:08:03;0.50;;;0.50;;
43919;SDS011;29578;51.946;5.874;2022-08-11T09:10:29;0.95;;;0.60;;
43919;SDS011;29578;51.946;5.874;2022-08-11T09:12:57;0.60;;;0.60;;
43919;SDS011;29578;51.946;5.874;2022-08-11T09:15:24;0.60;;;0.60;;
43919;SDS011;29578;51.946;5.874;2022-08-11T09:17:51;0.70;;;0.70;;
43919;SDS011;29578;51.946;5.874;2022-08-11T09:20:25;0.60;;;0.60;;
43919;SDS011;29578;51.946;5.874;2022-08-11T09:22:55;0.60;;;0.60;;
43919;SDS011;29578;51.946;5.874;2022-08-11T09:25:37;0.68;;;0.68;;
43919;SDS011;29578;51.946;5.874;2022-08-11T09:28:18;0.60;;;0.60;;
43919;SDS011;29578;51.946;5.874;2022-08-11T09:30:47;0.85;;;0.70;;
43919;SDS011;29578;51.946;5.874;2022-08-11T09:33:19;0.50;;;0.50;;
43919;SDS011;29578;51.946;5.874;2022-08-11T09:35:46;0.60;;;0.60;;
43919;SDS011;29578;51.946;5.874;2022-08-11T09:38:14;1.00;;;0.63;;
43919;SDS011;29578;51.946;5.874;2022-08-11T09:40:59;0.75;;;0.75;;
43919;SDS011;29578;51.946;5.874;2022-08-11T09:43:29;0.75;;;0.75;;
43919;SDS011;29578;51.946;5.874;2022-08-11T09:46:08;0.90;;;0.70;;
43919;SDS011;29578;51.946;5.874;2022-08-11T09:48:37;0.68;;;0.68;;
43919;SDS011;29578;51.946;5.874;2022-08-11T09:51:06;0.70;;;0.70;;
43919;SDS011;29578;51.946;5.874;2022-08-11T09:53:36;0.82;;;0.70;;
43919;SDS011;29578;51.946;5.874;2022-08-11T09:56:05;0.55;;;0.55;;
43919;SDS011;29578;51.946;5.874;2022-08-11T09:58:49;0.80;;;0.80;;
43919;SDS011;29578;51.946;5.874;2022-08-11T10:01:16;0.63;;;0.63;;
43919;SDS011;29578;51.946;5.874;2022-08-11T10:03:58;0.60;;;0.60;;
43919;SDS011;29578;51.946;5.874;2022-08-11T10:06:27;0.35;;;0.35;;
43919;SDS011;29578;51.946;5.874;2022-08-11T10:09:10;0.93;;;0.70;;
43919;SDS011;29578;51.946;5.874;2022-08-11T10:11:37;0.50;;;0.50;;
43919;SDS011;29578;51.946;5.874;2022-08-11T10:14:07;0.60;;;0.60;;
43919;SDS011;29578;51.946;5.874;2022-08-11T10:16:52;0.60;;;0.60;;
43919;SDS011;29578;51.946;5.874;2022-08-11T10:19:19;0.60;;;0.60;;
43919;SDS011;29578;51.946;5.874;2022-08-11T10:21:49;0.60;;;0.60;;
43919;SDS011;29578;51.946;5.874;2022-08-11T10:27:21;0.60;;;0.60;;
43919;SDS011;29578;51.946;5.874;2022-08-11T10:29:47;0.50;;;0.50;;
43919;SDS011;29578;51.946;5.874;2022-08-11T10:32:31;0.55;;;0.55;;
43919;SDS011;29578;51.946;5.874;2022-08-11T10:35:11;0.68;;;0.68;;
43919;SDS011;29578;51.946;5.874;2022-08-11T10:37:40;1.15;;;0.60;;
43919;SDS011;29578;51.946;5.874;2022-08-11T10:40:09;0.73;;;0.60;;
43919;SDS011;29578;51.946;5.874;2022-08-11T10:42:40;0.70;;;0.70;;
43919;SDS011;29578;51.946;5.874;2022-08-11T10:45:22;0.60;;;0.60;;
43919;SDS011;29578;51.946;5.874;2022-08-11T10:48:03;1.13;;;0.77;;
43919;SDS011;29578;51.946;5.874;2022-08-11T10:50:30;0.85;;;0.63;;
43919;SDS011;29578;51.946;5.874;2022-08-11T10:53:12;0.70;;;0.70;;
43919;SDS011;29578;51.946;5.874;2022-08-11T10:55:53;0.85;;;0.70;;
43919;SDS011;29578;51.946;5.874;2022-08-11T10:58:33;0.60;;;0.60;;
43919;SDS011;29578;51.946;5.874;2022-08-11T11:01:15;0.60;;;0.60;;
43919;SDS011;29578;51.946;5.874;2022-08-11T11:03:54;0.60;;;0.60;;
43919;SDS011;29578;51.946;5.874;2022-08-11T11:06:26;0.65;;;0.65;;
43919;SDS011;29578;51.946;5.874;2022-08-11T11:09:03;0.82;;;0.63;;
43919;SDS011;29578;51.946;5.874;2022-08-11T11:11:36;0.60;;;0.60;;
43919;SDS011;29578;51.946;5.874;2022-08-11T11:14:19;0.50;;;0.50;;
43919;SDS011;29578;51.946;5.874;2022-08-11T11:16:59;0.60;;;0.60;;
43919;SDS011;29578;51.946;5.874;2022-08-11T11:19:46;0.50;;;0.50;;
43919;SDS011;29578;51.946;5.874;2022-08-11T11:22:17;0.60;;;0.60;;
43919;SDS011;29578;51.946;5.874;2022-08-11T11:25:03;0.60;;;0.60;;
43919;SDS011;29578;51.946;5.874;2022-08-11T11:31:02;0.65;;;0.63;;
43919;SDS011;29578;51.946;5.874;2022-08-11T11:36:44;0.68;;;0.68;;
43919;SDS011;29578;51.946;5.874;2022-08-11T11:39:12;0.50;;;0.50;;
43919;SDS011;29578;51.946;5.874;2022-08-11T11:41:42;0.60;;;0.60;;
43919;SDS011;29578;51.946;5.874;2022-08-11T11:44:10;0.50;;;0.50;;
43919;SDS011;29578;51.946;5.874;2022-08-11T11:46:37;0.57;;;0.57;;
43919;SDS011;29578;51.946;5.874;2022-08-11T11:49:05;0.80;;;0.60;;
43919;SDS011;29578;51.946;5.874;2022-08-11T11:51:33;0.50;;;0.50;;
43919;SDS011;29578;51.946;5.874;2022-08-11T11:54:01;0.50;;;0.50;;
43919;SDS011;29578;51.946;5.874;2022-08-11T11:56:29;0.40;;;0.40;;
43919;SDS011;29578;51.946;5.874;2022-08-11T11:58:55;0.60;;;0.60;;
43919;SDS011;29578;51.946;5.874;2022-08-11T12:01:41;0.60;;;0.60;;
43919;SDS011;29578;51.946;5.874;2022-08-11T12:04:09;0.50;;;0.50;;
43919;SDS011;29578;51.946;5.874;2022-08-11T12:06:38;0.60;;;0.60;;
43919;SDS011;29578;51.946;5.874;2022-08-11T12:09:04;0.68;;;0.68;;
43919;SDS011;29578;51.946;5.874;2022-08-11T12:11:30;0.60;;;0.60;;
43919;SDS011;29578;51.946;5.874;2022-08-11T12:14:14;0.57;;;0.57;;
43919;SDS011;29578;51.946;5.874;2022-08-11T12:16:43;0.57;;;0.57;;
43919;SDS011;29578;51.946;5.874;2022-08-11T12:19:11;0.63;;;0.63;;
43919;SDS011;29578;51.946;5.874;2022-08-11T12:21:40;0.53;;;0.53;;
43919;SDS011;29578;51.946;5.874;2022-08-11T12:24:23;0.60;;;0.60;;
43919;SDS011;29578;51.946;5.874;2022-08-11T12:27:03;0.75;;;0.75;;
43919;SDS011;29578;51.946;5.874;2022-08-11T12:29:44;0.60;;;0.60;;
43919;SDS011;29578;51.946;5.874;2022-08-11T12:32:19;0.68;;;0.68;;
43919;SDS011;29578;51.946;5.874;2022-08-11T12:34:47;2.42;;;0.70;;
43919;SDS011;29578;51.946;5.874;2022-08-11T12:37:15;0.80;;;0.80;;
43919;SDS011;29578;51.946;5.874;2022-08-11T12:48:11;0.60;;;0.60;;
43919;SDS011;29578;51.946;5.874;2022-08-11T12:50:55;0.50;;;0.50;;
43919;SDS011;29578;51.946;5.874;2022-08-11T12:53:50;0.50;;;0.50;;
43919;SDS011;29578;51.946;5.874;2022-08-11T12:56:19;0.65;;;0.65;;
43919;SDS011;29578;51.946;5.874;2022-08-11T12:59:05;0.50;;;0.50;;
43919;SDS011;29578;51.946;5.874;2022-08-11T13:01:45;0.47;;;0.47;;
43919;SDS011;29578;51.946;5.874;2022-08-11T13:04:25;1.05;;;0.70;;
43919;SDS011;29578;51.946;5.874;2022-08-11T13:07:05;0.65;;;0.65;;
43919;SDS011;29578;51.946;5.874;2022-08-11T13:09:31;0.50;;;0.50;;
43919;SDS011;29578;51.946;5.874;2022-08-11T13:11:57;0.65;;;0.65;;
43919;SDS011;29578;51.946;5.874;2022-08-11T13:14:36;0.60;;;0.60;;
43919;SDS011;29578;51.946;5.874;2022-08-11T13:17:02;0.73;;;0.70;;
43919;SDS011;29578;51.946;5.874;2022-08-11T13:19:46;0.60;;;0.60;;
43919;SDS011;29578;51.946;5.874;2022-08-11T13:22:15;0.63;;;0.50;;
43919;SDS011;29578;51.946;5.874;2022-08-11T13:24:43;0.68;;;0.60;;
43919;SDS011;29578;51.946;5.874;2022-08-11T13:27:09;0.45;;;0.45;;
43919;SDS011;29578;51.946;5.874;2022-08-11T13:29:36;0.50;;;0.50;;
43919;SDS011;29578;51.946;5.874;2022-08-11T13:32:05;0.50;;;0.50;;
43919;SDS011;29578;51.946;5.874;2022-08-11T13:34:31;0.63;;;0.60;;
43919;SDS011;29578;51.946;5.874;2022-08-11T13:37:00;0.50;;;0.50;;
43919;SDS011;29578;51.946;5.874;2022-08-11T13:39:27;0.50;;;0.50;;
43919;SDS011;29578;51.946;5.874;2022-08-11T13:41:54;0.52;;;0.52;;
43919;SDS011;29578;51.946;5.874;2022-08-11T13:44:24;1.85;;;0.60;;
43919;SDS011;29578;51.946;5.874;2022-08-11T13:46:52;0.50;;;0.50;;
43919;SDS011;29578;51.946;5.874;2022-08-11T13:49:22;0.60;;;0.60;;
43919;SDS011;29578;51.946;5.874;2022-08-11T13:51:48;0.50;;;0.50;;
43919;SDS011;29578;51.946;5.874;2022-08-11T13:54:15;0.60;;;0.60;;
43919;SDS011;29578;51.946;5.874;2022-08-11T13:56:44;0.60;;;0.60;;
43919;SDS011;29578;51.946;5.874;2022-08-11T13:59:11;0.60;;;0.60;;
43919;SDS011;29578;51.946;5.874;2022-08-11T14:01:50;1.33;;;0.63;;
43919;SDS011;29578;51.946;5.874;2022-08-11T14:04:22;0.55;;;0.55;;
43919;SDS011;29578;51.946;5.874;2022-08-11T14:06:52;0.70;;;0.70;;
43919;SDS011;29578;51.946;5.874;2022-08-11T14:09:21;0.65;;;0.65;;
43919;SDS011;29578;51.946;5.874;2022-08-11T14:11:51;0.70;;;0.60;;
43919;SDS011;29578;51.946;5.874;2022-08-11T14:14:40;0.60;;;0.60;;
43919;SDS011;29578;51.946;5.874;2022-08-11T14:17:07;1.00;;;0.70;;
43919;SDS011;29578;51.946;5.874;2022-08-11T14:19:35;0.55;;;0.55;;
43919;SDS011;29578;51.946;5.874;2022-08-11T14:22:04;0.65;;;0.65;;
43919;SDS011;29578;51.946;5.874;2022-08-11T14:24:30;0.70;;;0.70;;
43919;SDS011;29578;51.946;5.874;2022-08-11T14:26:59;0.75;;;0.73;;
43919;SDS011;29578;51.946;5.874;2022-08-11T14:29:26;0.80;;;0.80;;
43919;SDS011;29578;51.946;5.874;2022-08-11T14:31:54;0.90;;;0.90;;
43919;SDS011;29578;51.946;5.874;2022-08-11T14:34:23;0.60;;;0.60;;
43919;SDS011;29578;51.946;5.874;2022-08-11T14:36:52;0.63;;;0.63;;
43919;SDS011;29578;51.946;5.874;2022-08-11T14:39:23;0.68;;;0.65;;
43919;SDS011;29578;51.946;5.874;2022-08-11T14:41:53;0.60;;;0.60;;
43919;SDS011;29578;51.946;5.874;2022-08-11T14:44:33;0.60;;;0.60;;
43919;SDS011;29578;51.946;5.874;2022-08-11T14:47:12;0.60;;;0.60;;
43919;SDS011;29578;51.946;5.874;2022-08-11T14:49:40;0.77;;;0.77;;
43919;SDS011;29578;51.946;5.874;2022-08-11T14:52:09;0.55;;;0.55;;
43919;SDS011;29578;51.946;5.874;2022-08-11T14:54:41;0.68;;;0.68;;
43919;SDS011;29578;51.946;5.874;2022-08-11T14:57:23;0.65;;;0.60;;
43919;SDS011;29578;51.946;5.874;2022-08-11T14:59:52;0.50;;;0.50;;
43919;SDS011;29578;51.946;5.874;2022-08-11T15:02:22;0.60;;;0.60;;
43919;SDS011;29578;51.946;5.874;2022-08-11T15:05:04;0.52;;;0.52;;
43919;SDS011;29578;51.946;5.874;2022-08-11T15:07:31;0.73;;;0.73;;
43919;SDS011;29578;51.946;5.874;2022-08-11T15:09:58;0.77;;;0.60;;
43919;SDS011;29578;51.946;5.874;2022-08-11T15:12:29;0.60;;;0.60;;
43919;SDS011;29578;51.946;5.874;2022-08-11T15:14:56;0.60;;;0.60;;
43919;SDS011;29578;51.946;5.874;2022-08-11T15:17:38;0.73;;;0.60;;
43919;SDS011;29578;51.946;5.874;2022-08-11T15:20:06;1.65;;;0.60;;
43919;SDS011;29578;51.946;5.874;2022-08-11T15:22:47;0.63;;;0.63;;
43919;SDS011;29578;51.946;5.874;2022-08-11T15:25:27;0.63;;;0.63;;
43919;SDS011;29578;51.946;5.874;2022-08-11T15:27:54;0.82;;;0.80;;
43919;SDS011;29578;51.946;5.874;2022-08-11T15:30:38;0.70;;;0.70;;
43919;SDS011;29578;51.946;5.874;2022-08-11T15:41:06;0.50;;;0.50;;
43919;SDS011;29578;51.946;5.874;2022-08-11T15:43:50;0.50;;;0.50;;
43919;SDS011;29578;51.946;5.874;2022-08-11T15:49:00;2.25;;;0.40;;
43919;SDS011;29578;51.946;5.874;2022-08-11T15:51:32;0.40;;;0.40;;
43919;SDS011;29578;51.946;5.874;2022-08-11T15:54:02;0.75;;;0.50;;
43919;SDS011;29578;51.946;5.874;2022-08-11T15:56:32;0.68;;;0.68;;
43919;SDS011;29578;51.946;5.874;2022-08-11T15:59:03;0.63;;;0.63;;
43919;SDS011;29578;51.946;5.874;2022-08-11T16:01:50;0.50;;;0.50;;
43919;SDS011;29578;51.946;5.874;2022-08-11T16:07:00;0.55;;;0.55;;
43919;SDS011;29578;51.946;5.874;2022-08-11T16:09:31;0.60;;;0.60;;
43919;SDS011;29578;51.946;5.874;2022-08-11T16:12:02;0.50;;;0.50;;
43919;SDS011;29578;51.946;5.874;2022-08-11T16:14:32;0.75;;;0.75;;
43919;SDS011;29578;51.946;5.874;2022-08-11T16:17:21;0.60;;;0.60;;
43919;SDS011;29578;51.946;5.874;2022-08-11T16:19:50;0.50;;;0.50;;
43919;SDS011;29578;51.946;5.874;2022-08-11T16:22:21;0.70;;;0.52;;
43919;SDS011;29578;51.946;5.874;2022-08-11T16:24:52;0.50;;;0.50;;
43919;SDS011;29578;51.946;5.874;2022-08-11T16:27:20;0.45;;;0.45;;
43919;SDS011;29578;51.946;5.874;2022-08-11T16:29:47;0.70;;;0.52;;
43919;SDS011;29578;51.946;5.874;2022-08-11T16:32:16;0.60;;;0.60;;
43919;SDS011;29578;51.946;5.874;2022-08-11T16:34:49;0.70;;;0.65;;
43919;SDS011;29578;51.946;5.874;2022-08-11T16:37:32;0.80;;;0.80;;
43919;SDS011;29578;51.946;5.874;2022-08-11T16:42:39;0.50;;;0.50;;
43919;SDS011;29578;51.946;5.874;2022-08-11T16:45:22;0.40;;;0.40;;
43919;SDS011;29578;51.946;5.874;2022-08-11T16:50:29;0.40;;;0.40;;
43919;SDS011;29578;51.946;5.874;2022-08-11T16:52:56;0.65;;;0.60;;
43919;SDS011;29578;51.946;5.874;2022-08-11T16:55:22;0.85;;;0.60;;
43919;SDS011;29578;51.946;5.874;2022-08-11T16:57:48;0.52;;;0.52;;
43919;SDS011;29578;51.946;5.874;2022-08-11T17:00:33;0.77;;;0.63;;
43919;SDS011;29578;51.946;5.874;2022-08-11T17:03:00;0.60;;;0.60;;
43919;SDS011;29578;51.946;5.874;2022-08-11T17:05:45;0.50;;;0.50;;
43919;SDS011;29578;51.946;5.874;2022-08-11T17:11:13;0.55;;;0.52;;
43919;SDS011;29578;51.946;5.874;2022-08-11T17:16:23;0.82;;;0.50;;
43919;SDS011;29578;51.946;5.874;2022-08-11T17:18:58;0.40;;;0.40;;
43919;SDS011;29578;51.946;5.874;2022-08-11T17:21:34;0.50;;;0.50;;
43919;SDS011;29578;51.946;5.874;2022-08-11T17:24:23;0.55;;;0.40;;
43919;SDS011;29578;51.946;5.874;2022-08-11T17:26:51;0.50;;;0.50;;
43919;SDS011;29578;51.946;5.874;2022-08-11T17:29:23;0.60;;;0.60;;
43919;SDS011;29578;51.946;5.874;2022-08-11T17:31:56;0.38;;;0.38;;
43919;SDS011;29578;51.946;5.874;2022-08-11T17:34:35;0.60;;;0.60;;
43919;SDS011;29578;51.946;5.874;2022-08-11T17:39:41;0.68;;;0.50;;
43919;SDS011;29578;51.946;5.874;2022-08-11T17:42:08;0.57;;;0.45;;
43919;SDS011;29578;51.946;5.874;2022-08-11T17:44:45;0.50;;;0.50;;
43919;SDS011;29578;51.946;5.874;2022-08-11T17:50:06;0.82;;;0.50;;
43919;SDS011;29578;51.946;5.874;2022-08-11T17:52:33;0.35;;;0.35;;
43919;SDS011;29578;51.946;5.874;2022-08-11T17:55:16;0.40;;;0.40;;
43919;SDS011;29578;51.946;5.874;2022-08-11T18:00:36;0.50;;;0.50;;
43919;SDS011;29578;51.946;5.874;2022-08-11T18:03:02;0.50;;;0.50;;
43919;SDS011;29578;51.946;5.874;2022-08-11T18:05:47;0.40;;;0.40;;
43919;SDS011;29578;51.946;5.874;2022-08-11T18:08:13;0.50;;;0.50;;
43919;SDS011;29578;51.946;5.874;2022-08-11T18:10:57;0.50;;;0.50;;
43919;SDS011;29578;51.946;5.874;2022-08-11T18:16:18;0.43;;;0.43;;
43919;SDS011;29578;51.946;5.874;2022-08-11T18:21:39;0.35;;;0.30;;
43919;SDS011;29578;51.946;5.874;2022-08-11T18:26:59;0.35;;;0.35;;
43919;SDS011;29578;51.946;5.874;2022-08-11T18:32:21;0.52;;;0.45;;
43919;SDS011;29578;51.946;5.874;2022-08-11T18:35:01;0.40;;;0.40;;
43919;SDS011;29578;51.946;5.874;2022-08-11T18:40:23;0.30;;;0.30;;
43919;SDS011;29578;51.946;5.874;2022-08-11T18:43:03;0.40;;;0.40;;
43919;SDS011;29578;51.946;5.874;2022-08-11T18:45:42;0.30;;;0.30;;